Star Flyer — 9HA2512 — position and weather

sailwx.info

Track history (hours):
 
Tides and Currents Weather Stations Pressure Air Temp Water Temp Dewpoint Dewpoint Depression Visibility Wind Speed Wind Dir Waves Ship Positions

Star Flyer

Last reported at 2018-Oct-17 20:48 UTC. Time now 2018-Oct-21 12:58 UTC.
Position N 37°09' E 023°17'.

Length 112 m; draft 5.9 m.

Type: Ship. MMSI: 248785000.

Date/timePositionNaut miles runAvg speedWind from/ knotsBaromVisibWave heightAir tempDewpointWater temp
2018-Oct-17 20:48N 37°09' E 023°17'15 2.8
2018-Oct-17 15:13N 37°22' E 023°28'6 0.7
2018-Oct-17 06:37N 37°25' E 023°33'1 3.0
2018-Oct-17 06:20N 37°25' E 023°34'13 2.4
2018-Oct-17 00:41N 37°36' E 023°44'1 3.3
2018-Oct-17 00:30N 37°37' E 023°44'1 3.1
2018-Oct-17 00:04N 37°38' E 023°43'0 3.1
2018-Oct-17 00:01N 37°38' E 023°43'2 3.3
2018-Oct-16 23:30N 37°40' E 023°42'2 3.3
2018-Oct-16 23:03N 37°41' E 023°41'0 3.4
2018-Oct-16 23:00N 37°41' E 023°41'2 3.7
2018-Oct-16 22:30N 37°43' E 023°40'2 3.5
2018-Oct-16 22:03N 37°44' E 023°39'0 3.3
2018-Oct-16 22:00N 37°44' E 023°39'2 3.3
2018-Oct-16 21:30N 37°46' E 023°38'1 3.2
2018-Oct-16 21:03N 37°47' E 023°37'0 4.0
2018-Oct-16 21:01N 37°47' E 023°37'2 4.1
2018-Oct-16 20:30N 37°49' E 023°36'2 4.8
2018-Oct-16 20:03N 37°51' E 023°36'0 4.9
2018-Oct-16 20:00N 37°52' E 023°36'3 5.3
2018-Oct-16 19:31N 37°54' E 023°36'2 4.8
2018-Oct-16 19:03N 37°56' E 023°37'0 7.9
2018-Oct-16 19:00N 37°56' E 023°38'0 0.7
2018-Oct-16 18:29N 37°56' E 023°38'0 0.0
2018-Oct-16 18:03N 37°56' E 023°38'0 0.1
2018-Oct-16 17:59N 37°56' E 023°38'0 0.0
2018-Oct-16 17:29N 37°56' E 023°38'0 0.0
2018-Oct-16 17:03N 37°56' E 023°38'0 0.0
2018-Oct-16 16:59N 37°56' E 023°38'0 0.0
2018-Oct-16 16:29N 37°56' E 023°38'0 0.0
2018-Oct-16 16:03N 37°56' E 023°38'0 0.0
2018-Oct-16 15:59N 37°56' E 023°38'0 0.0
2018-Oct-16 15:29N 37°56' E 023°38'0 0.0
2018-Oct-16 15:03N 37°56' E 023°38'0 0.1
2018-Oct-16 14:59N 37°56' E 023°38'0 0.0
2018-Oct-16 14:03N 37°56' E 023°38'0 0.0
2018-Oct-16 14:00N 37°56' E 023°38'0 0.0
2018-Oct-16 13:30N 37°56' E 023°38'0 0.0
2018-Oct-16 13:03N 37°56' E 023°38'0 0.0
2018-Oct-16 13:00N 37°56' E 023°38'0 0.0
2018-Oct-16 12:30N 37°56' E 023°38'0 0.0
2018-Oct-16 12:03N 37°56' E 023°38'0 0.0
2018-Oct-16 12:00N 37°56' E 023°38'0 0.0
2018-Oct-16 11:30N 37°56' E 023°38'0 0.0
2018-Oct-16 11:03N 37°56' E 023°38'0 0.0
2018-Oct-16 11:00N 37°56' E 023°38'0 0.0
2018-Oct-16 10:30N 37°56' E 023°38'0 0.0
2018-Oct-16 10:03N 37°56' E 023°38'0 0.1
2018-Oct-16 10:00N 37°56' E 023°38'0 0.0
2018-Oct-16 09:30N 37°56' E 023°38'0 0.0
2018-Oct-16 09:03N 37°56' E 023°38'0 0.0
2018-Oct-16 09:00N 37°56' E 023°38'0 0.0
2018-Oct-16 08:30N 37°56' E 023°38'0 0.0
2018-Oct-16 08:03N 37°56' E 023°38'0 0.0
2018-Oct-16 08:00N 37°56' E 023°38'0 0.0
2018-Oct-16 07:30N 37°56' E 023°38'0 0.0
2018-Oct-16 07:03N 37°56' E 023°38'0 0.0
2018-Oct-16 07:00N 37°56' E 023°38'0 0.0
2018-Oct-16 06:30N 37°56' E 023°38'0 0.0
2018-Oct-16 06:03N 37°56' E 023°38'0 0.0
2018-Oct-16 06:00N 37°56' E 023°38'0 0.0
2018-Oct-16 05:30N 37°56' E 023°38'0 0.0
2018-Oct-16 05:03N 37°56' E 023°38'0 0.0
2018-Oct-16 05:00N 37°56' E 023°38'0 0.0
2018-Oct-16 04:30N 37°56' E 023°38'0 0.0
2018-Oct-16 04:03N 37°56' E 023°38'0 0.3
2018-Oct-16 04:00N 37°56' E 023°38'2 3.2
2018-Oct-16 03:30N 37°55' E 023°36'0 0.9
2018-Oct-16 03:03N 37°55' E 023°36'0 0.6
2018-Oct-16 03:01N 37°55' E 023°36'2 3.7
2018-Oct-16 02:30N 37°54' E 023°38'3 7.0
2018-Oct-16 02:03N 37°51' E 023°40'0 8.0
2018-Oct-16 02:01N 37°51' E 023°40'4 7.9
2018-Oct-16 01:30N 37°47' E 023°42'4 8.2
2018-Oct-16 01:03N 37°44' E 023°44'0 8.4
2018-Oct-16 01:00N 37°43' E 023°44'4 8.7
2018-Oct-16 00:30N 37°39' E 023°47'4 8.9
2018-Oct-16 00:03N 37°36' E 023°50'47 7.8
2018-Oct-15 17:58N 37°18' E 024°46'4 7.7
2018-Oct-15 17:31N 37°19' E 024°50'3 6.6
2018-Oct-15 17:03N 37°20' E 024°54'0 7.9
2018-Oct-15 17:00N 37°20' E 024°54'3 6.6
2018-Oct-15 16:30N 37°21' E 024°58'3 7.1
2018-Oct-15 16:04N 37°22' E 025°01'2 7.3
2018-Oct-15 15:50N 37°23' E 025°03'3 8.0
2018-Oct-15 15:31N 37°24' E 025°06'3 7.0
2018-Oct-15 15:03N 37°26' E 025°10'0 6.3
2018-Oct-15 15:00N 37°26' E 025°10'7 7.6
2018-Oct-15 14:03N 37°27' E 025°19'0 1.8
2018-Oct-15 14:00N 37°27' E 025°19'0 0.3
2018-Oct-15 13:30N 37°27' E 025°19'0 0.0
2018-Oct-15 13:03N 37°27' E 025°19'0 0.1
2018-Oct-15 13:00N 37°27' E 025°19'0 0.0
2018-Oct-15 12:30N 37°27' E 025°19'0 0.0
2018-Oct-15 12:00N 37°27' E 025°19'0 0.0
2018-Oct-15 11:24N 37°27' E 025°19'0 0.0
2018-Oct-15 11:03N 37°27' E 025°19'0 0.1
2018-Oct-15 10:57N 37°27' E 025°19'0 0.0
2018-Oct-15 10:27N 37°27' E 025°19'0 0.0
2018-Oct-15 10:03N 37°27' E 025°19'0 0.0
2018-Oct-15 09:57N 37°27' E 025°19'0 0.0
2018-Oct-15 09:24N 37°27' E 025°19'0 0.0
2018-Oct-15 09:01N 37°27' E 025°19'0 0.0
2018-Oct-15 08:57N 37°27' E 025°19'0 0.0
2018-Oct-15 08:30N 37°27' E 025°19'0 0.0
2018-Oct-15 07:57N 37°27' E 025°19'0 0.0
2018-Oct-15 07:27N 37°27' E 025°19'0 0.0
2018-Oct-15 07:04N 37°27' E 025°19'0 0.0
2018-Oct-15 06:58N 37°27' E 025°19'0 0.0
2018-Oct-15 06:30N 37°27' E 025°19'1 2.9
2018-Oct-15 06:03N 37°27' E 025°18'0 5.3
2018-Oct-15 06:00N 37°27' E 025°17'3 5.3
2018-Oct-15 05:30N 37°24' E 025°17'2 5.0
2018-Oct-15 05:03N 37°22' E 025°17'0 5.2
2018-Oct-15 05:00N 37°22' E 025°17'2 4.6
2018-Oct-15 04:30N 37°19' E 025°18'2 4.3
2018-Oct-15 04:03N 37°17' E 025°18'0 4.0
2018-Oct-15 04:00N 37°17' E 025°18'2 4.1
2018-Oct-15 03:30N 37°15' E 025°18'2 4.0
2018-Oct-15 03:03N 37°13' E 025°19'0 4.1
2018-Oct-15 03:00N 37°13' E 025°19'2 4.2
2018-Oct-15 02:30N 37°11' E 025°19'2 4.2
2018-Oct-15 02:03N 37°09' E 025°19'0 4.0
2018-Oct-15 02:00N 37°09' E 025°19'2 4.0
2018-Oct-15 01:30N 37°07' E 025°19'2 4.3
2018-Oct-15 01:03N 37°05' E 025°18'0 4.3
2018-Oct-15 01:00N 37°05' E 025°18'2 4.3
2018-Oct-15 00:30N 37°03' E 025°18'2 4.7
2018-Oct-15 00:03N 37°01' E 025°17'0 5.0
2018-Oct-15 00:00N 37°01' E 025°17'  
Track history (hours):
 
Tides and Currents Weather Stations Pressure Air Temp Water Temp Dewpoint Dewpoint Depression Visibility Wind Speed Wind Dir Waves Ship Positions

Star Flyer

Last reported at 2018-Oct-17 20:48 UTC. Time now 2018-Oct-21 12:58 UTC.
Position N 37°09' E 023°17'.

Length 112 m; draft 5.9 m.

Type: Ship. MMSI: 248785000.

Date/timePositionNaut miles runAvg speedWind from/ knotsBaromVisibWave heightAir tempDewpointWater temp
2018-Oct-17 20:48N 37°09' E 023°17'15 2.8
2018-Oct-17 15:13N 37°22' E 023°28'6 0.7
2018-Oct-17 06:37N 37°25' E 023°33'1 3.0
2018-Oct-17 06:20N 37°25' E 023°34'13 2.4
2018-Oct-17 00:41N 37°36' E 023°44'1 3.3
2018-Oct-17 00:30N 37°37' E 023°44'1 3.1
2018-Oct-17 00:04N 37°38' E 023°43'0 3.1
2018-Oct-17 00:01N 37°38' E 023°43'2 3.3
2018-Oct-16 23:30N 37°40' E 023°42'2 3.3
2018-Oct-16 23:03N 37°41' E 023°41'0 3.4
2018-Oct-16 23:00N 37°41' E 023°41'2 3.7
2018-Oct-16 22:30N 37°43' E 023°40'2 3.5
2018-Oct-16 22:03N 37°44' E 023°39'0 3.3
2018-Oct-16 22:00N 37°44' E 023°39'2 3.3
2018-Oct-16 21:30N 37°46' E 023°38'1 3.2
2018-Oct-16 21:03N 37°47' E 023°37'0 4.0
2018-Oct-16 21:01N 37°47' E 023°37'2 4.1
2018-Oct-16 20:30N 37°49' E 023°36'2 4.8
2018-Oct-16 20:03N 37°51' E 023°36'0 4.9
2018-Oct-16 20:00N 37°52' E 023°36'3 5.3
2018-Oct-16 19:31N 37°54' E 023°36'2 4.8
2018-Oct-16 19:03N 37°56' E 023°37'0 7.9
2018-Oct-16 19:00N 37°56' E 023°38'0 0.7
2018-Oct-16 18:29N 37°56' E 023°38'0 0.0
2018-Oct-16 18:03N 37°56' E 023°38'0 0.1
2018-Oct-16 17:59N 37°56' E 023°38'0 0.0
2018-Oct-16 17:29N 37°56' E 023°38'0 0.0
2018-Oct-16 17:03N 37°56' E 023°38'0 0.0
2018-Oct-16 16:59N 37°56' E 023°38'0 0.0
2018-Oct-16 16:29N 37°56' E 023°38'0 0.0
2018-Oct-16 16:03N 37°56' E 023°38'0 0.0
2018-Oct-16 15:59N 37°56' E 023°38'0 0.0
2018-Oct-16 15:29N 37°56' E 023°38'0 0.0
2018-Oct-16 15:03N 37°56' E 023°38'0 0.1
2018-Oct-16 14:59N 37°56' E 023°38'0 0.0
2018-Oct-16 14:03N 37°56' E 023°38'0 0.0
2018-Oct-16 14:00N 37°56' E 023°38'0 0.0
2018-Oct-16 13:30N 37°56' E 023°38'0 0.0
2018-Oct-16 13:03N 37°56' E 023°38'0 0.0
2018-Oct-16 13:00N 37°56' E 023°38'0 0.0
2018-Oct-16 12:30N 37°56' E 023°38'0 0.0
2018-Oct-16 12:03N 37°56' E 023°38'0 0.0
2018-Oct-16 12:00N 37°56' E 023°38'0 0.0
2018-Oct-16 11:30N 37°56' E 023°38'0 0.0
2018-Oct-16 11:03N 37°56' E 023°38'0 0.0
2018-Oct-16 11:00N 37°56' E 023°38'0 0.0
2018-Oct-16 10:30N 37°56' E 023°38'0 0.0
2018-Oct-16 10:03N 37°56' E 023°38'0 0.1
2018-Oct-16 10:00N 37°56' E 023°38'0 0.0
2018-Oct-16 09:30N 37°56' E 023°38'0 0.0
2018-Oct-16 09:03N 37°56' E 023°38'0 0.0
2018-Oct-16 09:00N 37°56' E 023°38'0 0.0
2018-Oct-16 08:30N 37°56' E 023°38'0 0.0
2018-Oct-16 08:03N 37°56' E 023°38'0 0.0
2018-Oct-16 08:00N 37°56' E 023°38'0 0.0
2018-Oct-16 07:30N 37°56' E 023°38'0 0.0
2018-Oct-16 07:03N 37°56' E 023°38'0 0.0
2018-Oct-16 07:00N 37°56' E 023°38'0 0.0
2018-Oct-16 06:30N 37°56' E 023°38'0 0.0
2018-Oct-16 06:03N 37°56' E 023°38'0 0.0
2018-Oct-16 06:00N 37°56' E 023°38'0 0.0
2018-Oct-16 05:30N 37°56' E 023°38'0 0.0
2018-Oct-16 05:03N 37°56' E 023°38'0 0.0
2018-Oct-16 05:00N 37°56' E 023°38'0 0.0
2018-Oct-16 04:30N 37°56' E 023°38'0 0.0
2018-Oct-16 04:03N 37°56' E 023°38'0 0.3
2018-Oct-16 04:00N 37°56' E 023°38'2 3.2
2018-Oct-16 03:30N 37°55' E 023°36'0 0.9
2018-Oct-16 03:03N 37°55' E 023°36'0 0.6
2018-Oct-16 03:01N 37°55' E 023°36'2 3.7
2018-Oct-16 02:30N 37°54' E 023°38'3 7.0
2018-Oct-16 02:03N 37°51' E 023°40'0 8.0
2018-Oct-16 02:01N 37°51' E 023°40'4 7.9
2018-Oct-16 01:30N 37°47' E 023°42'4 8.2
2018-Oct-16 01:03N 37°44' E 023°44'0 8.4
2018-Oct-16 01:00N 37°43' E 023°44'4 8.7
2018-Oct-16 00:30N 37°39' E 023°47'4 8.9
2018-Oct-16 00:03N 37°36' E 023°50'47 7.8
2018-Oct-15 17:58N 37°18' E 024°46'4 7.7
2018-Oct-15 17:31N 37°19' E 024°50'3 6.6
2018-Oct-15 17:03N 37°20' E 024°54'0 7.9
2018-Oct-15 17:00N 37°20' E 024°54'3 6.6
2018-Oct-15 16:30N 37°21' E 024°58'3 7.1
2018-Oct-15 16:04N 37°22' E 025°01'2 7.3
2018-Oct-15 15:50N 37°23' E 025°03'3 8.0
2018-Oct-15 15:31N 37°24' E 025°06'3 7.0
2018-Oct-15 15:03N 37°26' E 025°10'0 6.3
2018-Oct-15 15:00N 37°26' E 025°10'7 7.6
2018-Oct-15 14:03N 37°27' E 025°19'0 1.8
2018-Oct-15 14:00N 37°27' E 025°19'0 0.3
2018-Oct-15 13:30N 37°27' E 025°19'0 0.0
2018-Oct-15 13:03N 37°27' E 025°19'0 0.1
2018-Oct-15 13:00N 37°27' E 025°19'0 0.0
2018-Oct-15 12:30N 37°27' E 025°19'0 0.0
2018-Oct-15 12:00N 37°27' E 025°19'0 0.0
2018-Oct-15 11:24N 37°27' E 025°19'0 0.0
2018-Oct-15 11:03N 37°27' E 025°19'0 0.1
2018-Oct-15 10:57N 37°27' E 025°19'0 0.0
2018-Oct-15 10:27N 37°27' E 025°19'0 0.0
2018-Oct-15 10:03N 37°27' E 025°19'0 0.0
2018-Oct-15 09:57N 37°27' E 025°19'0 0.0
2018-Oct-15 09:24N 37°27' E 025°19'0 0.0
2018-Oct-15 09:01N 37°27' E 025°19'0 0.0
2018-Oct-15 08:57N 37°27' E 025°19'0 0.0
2018-Oct-15 08:30N 37°27' E 025°19'0 0.0
2018-Oct-15 07:57N 37°27' E 025°19'0 0.0
2018-Oct-15 07:27N 37°27' E 025°19'0 0.0
2018-Oct-15 07:04N 37°27' E 025°19'0 0.0
2018-Oct-15 06:58N 37°27' E 025°19'0 0.0
2018-Oct-15 06:30N 37°27' E 025°19'1 2.9
2018-Oct-15 06:03N 37°27' E 025°18'0 5.3
2018-Oct-15 06:00N 37°27' E 025°17'3 5.3
2018-Oct-15 05:30N 37°24' E 025°17'2 5.0
2018-Oct-15 05:03N 37°22' E 025°17'0 5.2
2018-Oct-15 05:00N 37°22' E 025°17'2 4.6
2018-Oct-15 04:30N 37°19' E 025°18'2 4.3
2018-Oct-15 04:03N 37°17' E 025°18'0 4.0
2018-Oct-15 04:00N 37°17' E 025°18'2 4.1
2018-Oct-15 03:30N 37°15' E 025°18'2 4.0
2018-Oct-15 03:03N 37°13' E 025°19'0 4.1
2018-Oct-15 03:00N 37°13' E 025°19'2 4.2
2018-Oct-15 02:30N 37°11' E 025°19'2 4.2
2018-Oct-15 02:03N 37°09' E 025°19'0 4.0
2018-Oct-15 02:00N 37°09' E 025°19'2 4.0
2018-Oct-15 01:30N 37°07' E 025°19'2 4.3
2018-Oct-15 01:03N 37°05' E 025°18'0 4.3
2018-Oct-15 01:00N 37°05' E 025°18'2 4.3
2018-Oct-15 00:30N 37°03' E 025°18'2 4.7
2018-Oct-15 00:03N 37°01' E 025°17'0 5.0
2018-Oct-15 00:00N 37°01' E 025°17'  

Dump ship's entire track history